Hauptseite
METAR-TAF:

METAR-TAF

Flughäfen :

Flughafen Innsbruck

Innsbruck, Österreich

Breite: 47-16N, Länge: 011-21E, Höhe: 581 m

Beobachtung

Neuester Wetterbericht von vor 42 Minuten, um 23:20 UTC
Wind 1 kt aus unterschiedlichen Richtungen
Temperatur -8°C
Luftfeuchtigkeit 85%
Luftdruck 1001 hPa
Sichtweite 10 km oder mehr
Leicht bewölkt in der Höhe von 12000 ft
Durchbrochene Bewölkung in der Höhe von 13000 ft

METAR: LOWI 222320Z AUTO VRB01KT 9999 FEW120 BKN130 M08/M10 Q1001

Zeit: 01:02 (00:02 UTC)

Prognose

Neuester Wetterbericht von vor 47 Minuten, um 23:15 UTC
Gültige Prognose vom 23 um 00 UTC bis 23 um 24 UTC
Wind 2 kt aus unterschiedlichen Richtungen
Sichtweite 10 km oder mehr
Leicht bewölkt in der Höhe von 6000 ft
Aufgelockert bewölkt in der Höhe von 10000 ft
Durchbrochene Bewölkung in der Höhe von 12000 ft

TAF: LOWI 222315Z 2300/2324 VRB02KT 9999 FEW060 SCT100 BKN120 TXM01/2314Z TNM08/2301Z

Wetterbeobachtungen und Prognosen von mehr als 4000 Flughäfen (METAR und TAF Bericht).

Die verfügbaren Stationen werden durch gelbe und rote Markierungen auf der Karte dargestellt.

Führen Sie die Maus auf sie, um den Namen der Station zu sehen.

Darauf klicken, um die Beobachtung von Wetterbeobachtungen und Prognosen zu sehen.

Um die Karte zu ändern : klicken Sie auf den grünen Tasten mit einem schwarzen Kreuz Zum Vergrößern, auf den grünen Button mit einem Gedankenstrich zu verkleinern, oder auf die grünen Pfeile für benachbarte Karten.


METAR-TAF: